createdAt,value
2022-09-09T00:01:48.125Z,4.38
2022-09-09T00:06:57.036Z,4.78
2022-09-09T00:12:10.348Z,4.55
2022-09-09T00:17:37.329Z,4.40
2022-09-09T00:23:07.539Z,4.82
2022-09-09T00:28:24.634Z,4.43
2022-09-09T00:33:28.475Z,4.07
2022-09-09T00:38:56.635Z,4.97
2022-09-09T00:44:21.500Z,4.30
2022-09-09T00:49:50.897Z,4.60
2022-09-09T00:55:32.218Z,4.30
2022-09-09T01:01:10.157Z,4.07
2022-09-09T01:06:36.275Z,3.97
2022-09-09T01:12:02.281Z,4.28
2022-09-09T01:17:12.587Z,4.03
2022-09-09T01:22:32.199Z,3.85
2022-09-09T01:27:37.974Z,4.57
2022-09-09T01:32:46.950Z,4.30
2022-09-09T01:37:51.542Z,4.57
2022-09-09T01:42:56.429Z,3.88
2022-09-09T01:48:01.111Z,4.45
2022-09-09T01:53:34.096Z,4.30
2022-09-09T01:58:59.126Z,4.30
2022-09-09T02:04:09.149Z,3.97
2022-09-09T02:09:16.388Z,4.35
2022-09-09T02:14:29.102Z,4.00
2022-09-09T02:19:46.246Z,4.20
2022-09-09T02:25:01.304Z,4.70
2022-09-09T02:30:07.820Z,4.82
2022-09-09T02:35:27.367Z,4.40
2022-09-09T02:40:30.932Z,4.63
2022-09-09T02:45:53.211Z,5.38
2022-09-09T02:51:54.433Z,5.10
2022-09-09T02:57:09.497Z,5.55
2022-09-09T03:02:16.058Z,5.65
2022-09-09T03:07:23.372Z,5.35
2022-09-09T03:12:28.916Z,5.00
2022-09-09T03:17:32.530Z,6.22
2022-09-09T03:22:36.575Z,6.55
2022-09-09T03:27:40.142Z,7.13
2022-09-09T03:32:48.417Z,7.75
2022-09-09T03:37:52.769Z,6.38
2022-09-09T03:42:56.510Z,5.68
2022-09-09T03:48:03.003Z,5.97
2022-09-09T03:53:08.111Z,6.45
2022-09-09T03:58:11.520Z,5.97
2022-09-09T04:03:15.106Z,6.20
2022-09-09T04:08:20.201Z,6.07
2022-09-09T04:13:27.099Z,6.38
2022-09-09T04:18:33.564Z,6.95
2022-09-09T04:23:37.689Z,6.60
2022-09-09T04:28:42.460Z,5.95
2022-09-09T04:33:54.426Z,6.55
2022-09-09T04:38:59.487Z,6.78
2022-09-09T04:44:04.755Z,8.25
2022-09-09T04:49:14.452Z,6.90
2022-09-09T04:54:19.898Z,7.13
2022-09-09T04:59:24.793Z,7.25
2022-09-09T05:04:32.530Z,6.13
2022-09-09T05:09:36.043Z,6.47
2022-09-09T05:14:39.583Z,5.32
2022-09-09T05:19:45.213Z,6.47
2022-09-09T05:24:48.978Z,5.13
2022-09-09T05:29:52.702Z,5.40
2022-09-09T05:34:57.424Z,5.85
2022-09-09T05:40:03.233Z,5.35
2022-09-09T05:45:08.260Z,5.85
2022-09-09T05:50:11.989Z,7.47
2022-09-09T05:55:15.760Z,6.60
2022-09-09T06:00:19.715Z,5.82
2022-09-09T06:05:23.720Z,6.00
2022-09-09T06:10:27.353Z,6.35
2022-09-09T06:15:30.837Z,8.07
2022-09-09T06:20:34.080Z,6.32
2022-09-09T06:25:41.975Z,6.82
2022-09-09T06:30:49.813Z,6.38
2022-09-09T06:35:55.154Z,6.30
2022-09-09T06:41:00.456Z,6.40
2022-09-09T06:46:16.699Z,7.13
2022-09-09T06:51:24.062Z,7.35
2022-09-09T06:56:33.034Z,9.02
2022-09-09T07:01:42.296Z,6.67
2022-09-09T07:06:50.967Z,6.25
2022-09-09T07:11:58.605Z,5.88
2022-09-09T07:17:03.526Z,6.07
2022-09-09T07:22:13.100Z,6.40
2022-09-09T07:27:17.265Z,5.93
2022-09-09T07:32:21.617Z,5.78
2022-09-09T07:37:25.009Z,5.35
2022-09-09T07:42:30.019Z,6.38
2022-09-09T07:47:35.373Z,6.22
2022-09-09T07:52:42.242Z,5.47
2022-09-09T07:57:46.188Z,5.05
2022-09-09T08:02:51.895Z,7.68
2022-09-09T08:07:55.316Z,5.00
2022-09-09T08:13:15.242Z,4.32
2022-09-09T08:18:22.055Z,5.43
2022-09-09T08:23:25.606Z,3.85
2022-09-09T08:28:29.750Z,4.20
2022-09-09T08:33:33.820Z,4.05
2022-09-09T08:38:37.775Z,4.38
2022-09-09T08:43:44.779Z,4.85
2022-09-09T08:48:59.208Z,4.57
2022-09-09T08:54:05.975Z,4.30
2022-09-09T08:59:14.147Z,4.07
2022-09-09T09:04:35.187Z,3.78
2022-09-09T09:09:47.996Z,3.58
2022-09-09T09:14:51.824Z,3.70
2022-09-09T09:19:56.686Z,4.72
2022-09-09T09:25:03.342Z,3.55
2022-09-09T09:30:32.290Z,3.00
2022-09-09T09:35:43.216Z,4.00
2022-09-09T09:40:56.781Z,3.47
2022-09-09T09:46:16.839Z,3.92
2022-09-09T09:51:24.553Z,3.67
2022-09-09T09:56:29.914Z,3.67
2022-09-09T10:01:36.281Z,4.60
2022-09-09T10:06:44.693Z,3.63
2022-09-09T10:12:12.387Z,3.45
2022-09-09T10:17:31.002Z,4.03
2022-09-09T10:22:35.214Z,3.30
2022-09-09T10:27:38.799Z,3.95
2022-09-09T10:33:06.560Z,3.53
2022-09-09T10:38:22.007Z,3.88
2022-09-09T10:43:34.435Z,3.22
2022-09-09T10:48:56.431Z,3.85
2022-09-09T10:54:30.345Z,5.03
2022-09-09T10:59:48.308Z,3.38
2022-09-09T11:04:58.923Z,3.35
2022-09-09T11:10:08.594Z,3.60
2022-09-09T11:15:40.695Z,4.18
2022-09-09T11:20:45.951Z,3.92
2022-09-09T11:25:56.570Z,3.70
2022-09-09T11:31:23.283Z,2.85
2022-09-09T11:36:53.056Z,3.45
2022-09-09T11:42:09.444Z,3.03
2022-09-09T11:47:32.858Z,3.60
2022-09-09T11:52:42.299Z,2.95
2022-09-09T11:57:49.443Z,3.28
2022-09-09T12:02:52.998Z,5.03
2022-09-09T12:07:59.442Z,3.28
2022-09-09T12:13:10.215Z,3.10
2022-09-09T12:18:22.789Z,3.10
2022-09-09T12:23:36.635Z,3.00
2022-09-09T12:28:54.193Z,3.03
2022-09-09T12:34:24.383Z,3.50
2022-09-09T12:39:39.133Z,3.75
2022-09-09T12:45:01.734Z,4.07
2022-09-09T12:50:17.802Z,4.00
2022-09-09T12:55:28.854Z,3.97
2022-09-09T13:00:33.028Z,4.17
2022-09-09T13:05:39.144Z,3.65
2022-09-09T13:10:55.481Z,4.03
2022-09-09T13:16:02.849Z,3.78
2022-09-09T13:21:06.420Z,3.38
2022-09-09T13:26:27.622Z,3.67
2022-09-09T13:31:34.314Z,3.33
2022-09-09T13:36:37.780Z,3.72
2022-09-09T13:41:45.901Z,3.33
2022-09-09T13:47:01.737Z,3.72
2022-09-09T13:52:13.287Z,3.83
2022-09-09T13:57:25.435Z,3.33
2022-09-09T14:07:32.227Z,3.22
2022-09-09T14:12:35.585Z,2.97
2022-09-09T14:17:38.836Z,3.05
2022-09-09T14:22:42.984Z,3.00
2022-09-09T14:27:46.388Z,3.28
2022-09-09T14:32:50.214Z,2.95
2022-09-09T14:37:53.722Z,2.65
2022-09-09T14:42:57.370Z,2.60
2022-09-09T14:48:00.890Z,2.90
2022-09-09T14:53:11.141Z,3.50
2022-09-09T14:58:14.367Z,3.17
2022-09-09T15:03:18.033Z,2.50
2022-09-09T15:08:21.403Z,2.72
2022-09-09T15:13:24.897Z,2.58
2022-09-09T15:18:28.212Z,3.70
2022-09-09T15:23:33.662Z,3.30
2022-09-09T15:28:39.365Z,2.80
2022-09-09T15:33:42.856Z,3.38
2022-09-09T15:38:47.305Z,2.80
2022-09-09T15:43:53.485Z,2.97
2022-09-09T15:49:18.657Z,2.50
2022-09-09T15:54:23.900Z,2.60
2022-09-09T15:59:30.947Z,2.58
2022-09-09T16:04:34.717Z,3.45
2022-09-09T16:09:38.036Z,2.80
2022-09-09T16:14:41.177Z,3.22
2022-09-09T16:19:44.431Z,2.55
2022-09-09T16:24:47.922Z,2.30
2022-09-09T16:29:51.607Z,2.50
2022-09-09T16:34:54.917Z,2.28
2022-09-09T16:39:58.317Z,2.60
2022-09-09T16:45:01.836Z,3.00
2022-09-09T16:50:06.523Z,2.88
2022-09-09T16:55:09.777Z,3.00
2022-09-09T17:00:13.665Z,2.70
2022-09-09T17:05:17.527Z,3.10
2022-09-09T17:10:21.257Z,2.60
2022-09-09T17:15:24.848Z,2.80
2022-09-09T17:20:33.699Z,2.30
2022-09-09T17:25:58.443Z,2.45
2022-09-09T17:31:03.105Z,3.65
2022-09-09T17:36:18.271Z,2.50
2022-09-09T17:41:24.627Z,2.75
2022-09-09T17:46:38.284Z,2.90
2022-09-09T17:51:43.615Z,2.90
2022-09-09T17:56:48.909Z,2.38
2022-09-09T18:01:52.512Z,3.00
2022-09-09T18:06:55.841Z,2.60
2022-09-09T18:11:59.534Z,2.28
2022-09-09T18:17:03.648Z,2.85
2022-09-09T18:22:07.338Z,2.28
2022-09-09T18:27:10.628Z,2.70
2022-09-09T18:32:13.897Z,2.55
2022-09-09T18:37:17.441Z,3.00
2022-09-09T18:42:20.747Z,2.70
2022-09-09T18:47:24.180Z,2.97
2022-09-09T18:52:27.558Z,5.30
2022-09-09T18:57:35.855Z,3.08
2022-09-09T19:02:39.915Z,7.18
2022-09-09T19:07:43.355Z,4.72
2022-09-09T19:12:48.087Z,2.97
2022-09-09T19:17:51.587Z,3.30
2022-09-09T19:22:56.257Z,3.10
2022-09-09T19:27:59.656Z,4.15
2022-09-09T19:33:04.389Z,4.18
2022-09-09T19:38:08.676Z,4.30
2022-09-09T19:43:12.518Z,3.05
2022-09-09T19:48:15.852Z,3.10
2022-09-09T19:53:22.430Z,3.25
2022-09-09T19:58:26.222Z,3.33
2022-09-09T20:03:29.857Z,3.78
2022-09-09T20:08:34.342Z,3.35
2022-09-09T20:13:40.783Z,4.03
2022-09-09T20:18:46.958Z,3.30
2022-09-09T20:23:51.875Z,3.22
2022-09-09T20:28:56.028Z,3.10
2022-09-09T20:33:59.395Z,3.30
2022-09-09T20:39:06.295Z,3.63
2022-09-09T20:44:15.995Z,3.42
2022-09-09T20:49:21.353Z,3.85
2022-09-09T20:54:26.814Z,3.20
2022-09-09T20:59:32.520Z,2.83
2022-09-09T21:04:36.240Z,3.00
2022-09-09T21:09:40.285Z,2.60
2022-09-09T21:14:44.070Z,3.00
2022-09-09T21:19:47.410Z,3.17
2022-09-09T21:24:50.995Z,3.10
2022-09-09T21:29:54.142Z,3.53
2022-09-09T21:34:57.441Z,3.60
2022-09-09T21:40:00.747Z,3.30
2022-09-09T21:45:06.638Z,4.10
2022-09-09T21:50:10.540Z,3.22
2022-09-09T21:55:14.379Z,4.03
2022-09-09T22:00:17.783Z,3.13
2022-09-09T22:05:21.068Z,3.47
2022-09-09T22:10:25.640Z,2.80
2022-09-09T22:15:29.602Z,3.42
2022-09-09T22:20:34.396Z,3.50
2022-09-09T22:25:39.206Z,3.30
2022-09-09T22:30:43.214Z,3.03
2022-09-09T22:35:46.617Z,2.75
2022-09-09T22:40:50.155Z,2.83
2022-09-09T22:45:53.784Z,3.70
2022-09-09T22:51:02.112Z,2.97
2022-09-09T22:56:07.993Z,2.95
2022-09-09T23:01:19.884Z,2.88
2022-09-09T23:06:25.889Z,2.88
2022-09-09T23:11:37.505Z,3.67
2022-09-09T23:16:45.316Z,3.20
2022-09-09T23:21:48.868Z,3.55
2022-09-09T23:26:52.527Z,3.55
2022-09-09T23:31:56.019Z,3.72
2022-09-09T23:36:59.517Z,3.58
2022-09-09T23:42:06.262Z,3.53
2022-09-09T23:47:10.000Z,3.72
2022-09-09T23:52:13.296Z,3.60
2022-09-09T23:57:16.516Z,4.07
